sensor_id;sensor_type;location;lat;lon;timestamp;pressure;altitude;pressure_sealevel;temperature;humidity
20710;BME280;10516;51.518;9.864;2023-05-23T00:01:24;98566.88;;;17.84;74.08
20710;BME280;10516;51.518;9.864;2023-05-23T00:03:50;98577.94;;;17.82;74.47
20710;BME280;10516;51.518;9.864;2023-05-23T00:06:19;98567.28;;;17.64;74.74
20710;BME280;10516;51.518;9.864;2023-05-23T00:08:45;98553.56;;;17.74;73.88
20710;BME280;10516;51.518;9.864;2023-05-23T00:11:10;98566.97;;;17.79;73.71
20710;BME280;10516;51.518;9.864;2023-05-23T00:13:37;98563.94;;;17.80;73.78
20710;BME280;10516;51.518;9.864;2023-05-23T00:16:04;98558.59;;;17.67;74.28
20710;BME280;10516;51.518;9.864;2023-05-23T00:18:34;98580.97;;;17.67;74.60
20710;BME280;10516;51.518;9.864;2023-05-23T00:20:59;98550.56;;;17.48;74.90
20710;BME280;10516;51.518;9.864;2023-05-23T00:23:26;98569.66;;;17.65;74.17
20710;BME280;10516;51.518;9.864;2023-05-23T00:25:54;98551.38;;;17.62;74.48
20710;BME280;10516;51.518;9.864;2023-05-23T00:28:20;98553.97;;;17.67;74.27
20710;BME280;10516;51.518;9.864;2023-05-23T00:30:46;98576.94;;;17.78;74.29
20710;BME280;10516;51.518;9.864;2023-05-23T00:33:14;98577.84;;;17.74;74.28
20710;BME280;10516;51.518;9.864;2023-05-23T00:35:41;98584.97;;;17.70;74.41
20710;BME280;10516;51.518;9.864;2023-05-23T00:38:06;98581.94;;;17.71;73.87
20710;BME280;10516;51.518;9.864;2023-05-23T00:40:32;98584.38;;;17.59;74.78
20710;BME280;10516;51.518;9.864;2023-05-23T00:42:59;98579.81;;;17.41;75.24
20710;BME280;10516;51.518;9.864;2023-05-23T00:45:25;98583.69;;;17.54;75.19
20710;BME280;10516;51.518;9.864;2023-05-23T00:47:50;98578.06;;;17.50;74.76
20710;BME280;10516;51.518;9.864;2023-05-23T00:50:16;98596.88;;;17.55;75.43
20710;BME280;10516;51.518;9.864;2023-05-23T00:52:43;98604.66;;;17.70;74.37
20710;BME280;10516;51.518;9.864;2023-05-23T00:55:09;98592.06;;;17.79;74.29
20710;BME280;10516;51.518;9.864;2023-05-23T00:57:35;98591.47;;;17.69;74.15
20710;BME280;10516;51.518;9.864;2023-05-23T01:00:07;98602.84;;;17.66;74.63
20710;BME280;10516;51.518;9.864;2023-05-23T01:02:44;98584.06;;;17.61;75.08
20710;BME280;10516;51.518;9.864;2023-05-23T01:05:11;98601.47;;;17.55;75.62
20710;BME280;10516;51.518;9.864;2023-05-23T01:07:39;98597.75;;;17.78;74.93
20710;BME280;10516;51.518;9.864;2023-05-23T01:10:05;98583.38;;;17.69;74.49
20710;BME280;10516;51.518;9.864;2023-05-23T01:15:18;98595.44;;;17.71;75.12
20710;BME280;10516;51.518;9.864;2023-05-23T01:17:53;98583.47;;;17.64;75.10
20710;BME280;10516;51.518;9.864;2023-05-23T01:20:40;98575.38;;;17.64;75.29
20710;BME280;10516;51.518;9.864;2023-05-23T01:26:05;98572.13;;;17.35;77.56
20710;BME280;10516;51.518;9.864;2023-05-23T01:28:42;98591.72;;;17.40;76.67
20710;BME280;10516;51.518;9.864;2023-05-23T01:31:10;98577.91;;;17.28;77.48
20710;BME280;10516;51.518;9.864;2023-05-23T01:33:37;98599.56;;;17.55;76.46
20710;BME280;10516;51.518;9.864;2023-05-23T01:36:04;98580.22;;;17.48;76.46
20710;BME280;10516;51.518;9.864;2023-05-23T01:38:30;98583.00;;;17.16;77.86
20710;BME280;10516;51.518;9.864;2023-05-23T01:40:55;98596.72;;;17.33;77.21
20710;BME280;10516;51.518;9.864;2023-05-23T01:43:21;98584.44;;;17.41;76.97
20710;BME280;10516;51.518;9.864;2023-05-23T01:45:48;98573.66;;;17.41;76.68
20710;BME280;10516;51.518;9.864;2023-05-23T01:48:15;98583.69;;;17.54;75.91
20710;BME280;10516;51.518;9.864;2023-05-23T01:50:42;98579.41;;;17.20;78.73
20710;BME280;10516;51.518;9.864;2023-05-23T01:53:10;98593.53;;;16.85;80.27
20710;BME280;10516;51.518;9.864;2023-05-23T01:55:36;98585.25;;;16.63;82.98
20710;BME280;10516;51.518;9.864;2023-05-23T01:58:03;98573.34;;;16.83;79.69
20710;BME280;10516;51.518;9.864;2023-05-23T02:00:29;98567.25;;;16.59;82.69
20710;BME280;10516;51.518;9.864;2023-05-23T02:02:54;98583.13;;;16.79;79.96
20710;BME280;10516;51.518;9.864;2023-05-23T02:05:20;98592.72;;;16.47;81.98
20710;BME280;10516;51.518;9.864;2023-05-23T02:07:45;98601.91;;;16.84;80.41
20710;BME280;10516;51.518;9.864;2023-05-23T02:10:11;98603.22;;;16.68;80.80
20710;BME280;10516;51.518;9.864;2023-05-23T02:12:36;98604.47;;;16.75;80.54
20710;BME280;10516;51.518;9.864;2023-05-23T02:15:02;98597.66;;;16.64;80.72
20710;BME280;10516;51.518;9.864;2023-05-23T02:17:27;98598.41;;;16.83;80.21
20710;BME280;10516;51.518;9.864;2023-05-23T02:19:53;98595.28;;;16.76;79.69
20710;BME280;10516;51.518;9.864;2023-05-23T02:22:22;98591.22;;;16.41;80.65
20710;BME280;10516;51.518;9.864;2023-05-23T02:24:49;98597.41;;;16.61;79.97
20710;BME280;10516;51.518;9.864;2023-05-23T02:27:14;98588.63;;;16.55;80.14
20710;BME280;10516;51.518;9.864;2023-05-23T02:29:39;98600.09;;;16.61;80.10
20710;BME280;10516;51.518;9.864;2023-05-23T02:32:05;98606.44;;;16.70;79.46
20710;BME280;10516;51.518;9.864;2023-05-23T02:34:30;98600.72;;;16.58;79.67
20710;BME280;10516;51.518;9.864;2023-05-23T02:36:56;98621.28;;;16.67;78.95
20710;BME280;10516;51.518;9.864;2023-05-23T02:39:21;98617.22;;;16.32;79.85
20710;BME280;10516;51.518;9.864;2023-05-23T02:41:47;98614.56;;;16.27;79.94
20710;BME280;10516;51.518;9.864;2023-05-23T02:44:12;98614.94;;;16.02;79.91
20710;BME280;10516;51.518;9.864;2023-05-23T02:46:37;98617.31;;;16.04;79.79
20710;BME280;10516;51.518;9.864;2023-05-23T02:49:03;98628.06;;;16.46;78.30
20710;BME280;10516;51.518;9.864;2023-05-23T02:51:28;98639.69;;;16.23;77.85
20710;BME280;10516;51.518;9.864;2023-05-23T02:53:53;98632.56;;;16.13;78.53
20710;BME280;10516;51.518;9.864;2023-05-23T02:56:19;98639.00;;;16.12;78.45
20710;BME280;10516;51.518;9.864;2023-05-23T02:58:46;98650.97;;;15.59;80.33
20710;BME280;10516;51.518;9.864;2023-05-23T03:01:11;98634.50;;;16.08;78.21
20710;BME280;10516;51.518;9.864;2023-05-23T03:03:37;98662.44;;;16.35;77.78
20710;BME280;10516;51.518;9.864;2023-05-23T03:06:02;98659.94;;;16.39;77.37
20710;BME280;10516;51.518;9.864;2023-05-23T03:08:29;98646.69;;;16.42;77.05
20710;BME280;10516;51.518;9.864;2023-05-23T03:10:54;98641.50;;;16.09;77.85
20710;BME280;10516;51.518;9.864;2023-05-23T03:13:20;98644.44;;;16.49;76.83
20710;BME280;10516;51.518;9.864;2023-05-23T03:15:46;98650.75;;;16.21;77.77
20710;BME280;10516;51.518;9.864;2023-05-23T03:18:11;98646.53;;;16.34;76.66
20710;BME280;10516;51.518;9.864;2023-05-23T03:20:37;98650.81;;;16.16;77.68
20710;BME280;10516;51.518;9.864;2023-05-23T03:23:02;98644.38;;;15.94;77.67
20710;BME280;10516;51.518;9.864;2023-05-23T03:25:28;98654.59;;;16.15;78.16
20710;BME280;10516;51.518;9.864;2023-05-23T03:27:53;98665.19;;;16.30;77.36
20710;BME280;10516;51.518;9.864;2023-05-23T03:30:19;98658.84;;;15.79;79.18
20710;BME280;10516;51.518;9.864;2023-05-23T03:32:44;98648.09;;;15.98;78.81
20710;BME280;10516;51.518;9.864;2023-05-23T03:35:10;98646.16;;;16.40;76.38
20710;BME280;10516;51.518;9.864;2023-05-23T03:37:36;98657.31;;;16.15;78.11
20710;BME280;10516;51.518;9.864;2023-05-23T03:40:02;98635.50;;;15.93;78.09
20710;BME280;10516;51.518;9.864;2023-05-23T03:42:27;98657.91;;;15.65;79.42
20710;BME280;10516;51.518;9.864;2023-05-23T03:44:53;98667.81;;;15.93;78.97
20710;BME280;10516;51.518;9.864;2023-05-23T03:47:18;98653.94;;;16.05;78.23
20710;BME280;10516;51.518;9.864;2023-05-23T03:49:44;98664.28;;;16.16;77.70
20710;BME280;10516;51.518;9.864;2023-05-23T03:52:10;98663.25;;;16.55;75.93
20710;BME280;10516;51.518;9.864;2023-05-23T03:54:35;98665.13;;;16.35;76.70
20710;BME280;10516;51.518;9.864;2023-05-23T03:57:00;98642.97;;;16.38;76.35
20710;BME280;10516;51.518;9.864;2023-05-23T03:59:27;98653.84;;;16.52;75.98
20710;BME280;10516;51.518;9.864;2023-05-23T04:01:52;98661.69;;;16.30;77.06
20710;BME280;10516;51.518;9.864;2023-05-23T04:04:17;98656.66;;;16.23;77.20
20710;BME280;10516;51.518;9.864;2023-05-23T04:06:45;98661.63;;;16.35;76.64
20710;BME280;10516;51.518;9.864;2023-05-23T04:09:10;98662.75;;;16.53;76.10
20710;BME280;10516;51.518;9.864;2023-05-23T04:11:35;98657.91;;;16.31;76.94
20710;BME280;10516;51.518;9.864;2023-05-23T04:14:01;98677.47;;;16.36;76.60
20710;BME280;10516;51.518;9.864;2023-05-23T04:16:26;98674.88;;;16.31;76.92
20710;BME280;10516;51.518;9.864;2023-05-23T04:18:52;98669.38;;;16.18;76.90
20710;BME280;10516;51.518;9.864;2023-05-23T04:21:18;98686.94;;;16.34;76.10
20710;BME280;10516;51.518;9.864;2023-05-23T04:23:43;98668.72;;;16.07;77.17
20710;BME280;10516;51.518;9.864;2023-05-23T04:26:09;98677.41;;;15.99;77.06
20710;BME280;10516;51.518;9.864;2023-05-23T04:28:35;98686.78;;;15.83;77.77
20710;BME280;10516;51.518;9.864;2023-05-23T04:31:01;98657.16;;;15.83;77.28
20710;BME280;10516;51.518;9.864;2023-05-23T04:33:28;98681.94;;;15.80;77.17
20710;BME280;10516;51.518;9.864;2023-05-23T04:35:54;98684.88;;;16.07;76.89
20710;BME280;10516;51.518;9.864;2023-05-23T04:38:20;98669.59;;;16.03;76.23
20710;BME280;10516;51.518;9.864;2023-05-23T04:40:47;98666.09;;;15.55;78.05
20710;BME280;10516;51.518;9.864;2023-05-23T04:43:13;98693.28;;;15.77;77.08
20710;BME280;10516;51.518;9.864;2023-05-23T04:45:40;98691.34;;;15.59;77.33
20710;BME280;10516;51.518;9.864;2023-05-23T04:48:06;98669.34;;;15.52;77.26
20710;BME280;10516;51.518;9.864;2023-05-23T04:50:32;98682.03;;;15.46;77.99
20710;BME280;10516;51.518;9.864;2023-05-23T04:52:59;98699.75;;;15.76;77.06
20710;BME280;10516;51.518;9.864;2023-05-23T04:55:25;98707.06;;;15.70;76.98
20710;BME280;10516;51.518;9.864;2023-05-23T04:57:50;98698.03;;;15.61;77.24
20710;BME280;10516;51.518;9.864;2023-05-23T05:00:16;98692.19;;;15.78;76.89
20710;BME280;10516;51.518;9.864;2023-05-23T05:02:41;98705.75;;;15.39;78.48
20710;BME280;10516;51.518;9.864;2023-05-23T05:05:08;98699.31;;;15.64;78.09
20710;BME280;10516;51.518;9.864;2023-05-23T05:07:33;98705.72;;;15.44;78.73
20710;BME280;10516;51.518;9.864;2023-05-23T05:10:00;98693.78;;;15.22;78.97
20710;BME280;10516;51.518;9.864;2023-05-23T05:12:26;98697.69;;;15.68;78.26
20710;BME280;10516;51.518;9.864;2023-05-23T05:14:51;98691.13;;;15.79;77.36
20710;BME280;10516;51.518;9.864;2023-05-23T05:17:17;98686.22;;;15.57;77.38
20710;BME280;10516;51.518;9.864;2023-05-23T05:19:44;98696.34;;;15.94;76.73
20710;BME280;10516;51.518;9.864;2023-05-23T05:22:10;98699.84;;;15.03;78.90
20710;BME280;10516;51.518;9.864;2023-05-23T05:24:35;98691.72;;;15.42;78.98
20710;BME280;10516;51.518;9.864;2023-05-23T05:27:01;98687.00;;;15.29;77.93
20710;BME280;10516;51.518;9.864;2023-05-23T05:29:26;98678.34;;;15.66;76.84
20710;BME280;10516;51.518;9.864;2023-05-23T05:31:52;98699.88;;;15.90;77.03
20710;BME280;10516;51.518;9.864;2023-05-23T05:34:18;98690.59;;;15.77;76.83
20710;BME280;10516;51.518;9.864;2023-05-23T05:36:43;98703.44;;;16.09;76.34
20710;BME280;10516;51.518;9.864;2023-05-23T05:39:13;98678.69;;;15.83;76.68
20710;BME280;10516;51.518;9.864;2023-05-23T05:41:38;98683.19;;;15.64;77.44
20710;BME280;10516;51.518;9.864;2023-05-23T05:44:05;98691.13;;;15.79;76.27
20710;BME280;10516;51.518;9.864;2023-05-23T05:46:30;98703.00;;;15.73;76.50
20710;BME280;10516;51.518;9.864;2023-05-23T05:48:55;98707.50;;;15.83;76.54
20710;BME280;10516;51.518;9.864;2023-05-23T05:51:21;98705.94;;;15.77;76.66
20710;BME280;10516;51.518;9.864;2023-05-23T05:53:46;98716.53;;;16.15;75.80
20710;BME280;10516;51.518;9.864;2023-05-23T05:56:13;98725.16;;;16.36;75.02
20710;BME280;10516;51.518;9.864;2023-05-23T05:58:38;98722.81;;;16.29;74.94
20710;BME280;10516;51.518;9.864;2023-05-23T06:01:04;98727.00;;;16.40;74.81
20710;BME280;10516;51.518;9.864;2023-05-23T06:03:30;98709.53;;;16.38;74.80
20710;BME280;10516;51.518;9.864;2023-05-23T06:05:56;98693.72;;;16.08;75.53
20710;BME280;10516;51.518;9.864;2023-05-23T06:08:21;98703.13;;;16.10;75.13
20710;BME280;10516;51.518;9.864;2023-05-23T06:10:47;98720.81;;;16.16;75.67
20710;BME280;10516;51.518;9.864;2023-05-23T06:13:12;98711.09;;;16.20;75.08
20710;BME280;10516;51.518;9.864;2023-05-23T06:15:38;98720.47;;;16.46;74.58
20710;BME280;10516;51.518;9.864;2023-05-23T06:18:03;98720.75;;;16.45;74.45
20710;BME280;10516;51.518;9.864;2023-05-23T06:20:28;98726.06;;;16.31;75.56
20710;BME280;10516;51.518;9.864;2023-05-23T06:22:54;98723.09;;;16.52;74.68
20710;BME280;10516;51.518;9.864;2023-05-23T06:25:19;98719.38;;;16.47;75.02
20710;BME280;10516;51.518;9.864;2023-05-23T06:27:44;98693.81;;;16.03;76.68
20710;BME280;10516;51.518;9.864;2023-05-23T06:30:10;98728.28;;;16.24;76.56
20710;BME280;10516;51.518;9.864;2023-05-23T06:32:36;98723.66;;;15.83;77.62
20710;BME280;10516;51.518;9.864;2023-05-23T06:35:02;98716.13;;;16.03;77.56
20710;BME280;10516;51.518;9.864;2023-05-23T06:37:28;98704.28;;;15.81;78.40
20710;BME280;10516;51.518;9.864;2023-05-23T06:39:53;98703.47;;;15.80;78.56
20710;BME280;10516;51.518;9.864;2023-05-23T06:42:18;98718.78;;;15.85;78.87
20710;BME280;10516;51.518;9.864;2023-05-23T06:44:44;98700.09;;;15.69;79.35
20710;BME280;10516;51.518;9.864;2023-05-23T06:47:09;98726.13;;;15.79;78.61
20710;BME280;10516;51.518;9.864;2023-05-23T06:49:35;98720.13;;;15.82;78.95
20710;BME280;10516;51.518;9.864;2023-05-23T06:52:00;98721.13;;;15.91;78.79
20710;BME280;10516;51.518;9.864;2023-05-23T06:54:25;98701.31;;;15.82;78.70
20710;BME280;10516;51.518;9.864;2023-05-23T06:56:51;98698.03;;;15.61;79.85
20710;BME280;10516;51.518;9.864;2023-05-23T06:59:16;98724.50;;;15.78;79.03
20710;BME280;10516;51.518;9.864;2023-05-23T07:01:41;98681.88;;;15.33;80.66
20710;BME280;10516;51.518;9.864;2023-05-23T07:04:07;98724.66;;;15.63;80.36
20710;BME280;10516;51.518;9.864;2023-05-23T07:06:34;98722.38;;;15.75;79.43
20710;BME280;10516;51.518;9.864;2023-05-23T07:09:00;98711.19;;;15.63;79.47
20710;BME280;10516;51.518;9.864;2023-05-23T07:11:25;98710.69;;;15.61;79.54
20710;BME280;10516;51.518;9.864;2023-05-23T07:13:51;98701.91;;;15.50;80.43
20710;BME280;10516;51.518;9.864;2023-05-23T07:16:17;98706.31;;;15.65;79.63
20710;BME280;10516;51.518;9.864;2023-05-23T07:18:42;98699.16;;;15.55;80.38
20710;BME280;10516;51.518;9.864;2023-05-23T07:21:07;98691.84;;;15.27;81.73
20710;BME280;10516;51.518;9.864;2023-05-23T07:23:33;98696.75;;;15.54;80.74
20710;BME280;10516;51.518;9.864;2023-05-23T07:26:00;98692.81;;;15.46;80.83
20710;BME280;10516;51.518;9.864;2023-05-23T07:28:26;98711.66;;;15.70;80.16
20710;BME280;10516;51.518;9.864;2023-05-23T07:30:52;98709.91;;;15.55;80.32
20710;BME280;10516;51.518;9.864;2023-05-23T07:33:17;98693.69;;;15.32;80.76
20710;BME280;10516;51.518;9.864;2023-05-23T07:35:43;98707.34;;;15.40;80.92
20710;BME280;10516;51.518;9.864;2023-05-23T07:38:09;98697.38;;;15.46;80.77
20710;BME280;10516;51.518;9.864;2023-05-23T07:40:34;98690.41;;;15.06;81.89
20710;BME280;10516;51.518;9.864;2023-05-23T07:42:59;98707.84;;;15.42;80.89
20710;BME280;10516;51.518;9.864;2023-05-23T07:45:25;98709.22;;;15.40;81.26
20710;BME280;10516;51.518;9.864;2023-05-23T07:47:50;98714.03;;;15.48;81.13
20710;BME280;10516;51.518;9.864;2023-05-23T07:50:15;98708.59;;;15.19;82.17
20710;BME280;10516;51.518;9.864;2023-05-23T07:52:42;98729.38;;;15.42;82.15
20710;BME280;10516;51.518;9.864;2023-05-23T07:55:08;98718.50;;;15.57;80.86
20710;BME280;10516;51.518;9.864;2023-05-23T07:57:33;98704.63;;;15.45;81.69
20710;BME280;10516;51.518;9.864;2023-05-23T07:59:59;98719.94;;;15.50;81.74
20710;BME280;10516;51.518;9.864;2023-05-23T08:02:24;98722.31;;;15.51;82.15
20710;BME280;10516;51.518;9.864;2023-05-23T08:04:49;98716.09;;;15.56;81.42
20710;BME280;10516;51.518;9.864;2023-05-23T08:07:15;98690.72;;;15.33;81.98
20710;BME280;10516;51.518;9.864;2023-05-23T08:09:40;98705.97;;;15.48;81.45
20710;BME280;10516;51.518;9.864;2023-05-23T08:12:07;98730.84;;;15.63;81.35
20710;BME280;10516;51.518;9.864;2023-05-23T08:14:33;98731.94;;;15.57;81.47
20710;BME280;10516;51.518;9.864;2023-05-23T08:16:59;98736.22;;;15.63;81.16
20710;BME280;10516;51.518;9.864;2023-05-23T08:19:24;98740.78;;;15.63;81.30
20710;BME280;10516;51.518;9.864;2023-05-23T08:21:51;98739.78;;;15.54;81.40
20710;BME280;10516;51.518;9.864;2023-05-23T08:24:19;98749.47;;;15.55;81.36
20710;BME280;10516;51.518;9.864;2023-05-23T08:26:45;98758.09;;;15.52;81.46
20710;BME280;10516;51.518;9.864;2023-05-23T08:29:10;98762.44;;;15.43;82.46
20710;BME280;10516;51.518;9.864;2023-05-23T08:31:36;98741.44;;;15.50;81.46
20710;BME280;10516;51.518;9.864;2023-05-23T08:34:01;98756.63;;;15.64;80.60
20710;BME280;10516;51.518;9.864;2023-05-23T08:36:27;98746.78;;;15.55;81.34
20710;BME280;10516;51.518;9.864;2023-05-23T08:38:52;98745.78;;;15.46;81.91
20710;BME280;10516;51.518;9.864;2023-05-23T08:41:20;98769.16;;;15.50;81.80
20710;BME280;10516;51.518;9.864;2023-05-23T08:43:45;98748.47;;;15.46;82.14
20710;BME280;10516;51.518;9.864;2023-05-23T08:46:12;98750.78;;;15.57;81.30
20710;BME280;10516;51.518;9.864;2023-05-23T08:48:38;98754.81;;;15.60;81.34
20710;BME280;10516;51.518;9.864;2023-05-23T08:51:06;98756.78;;;15.78;80.33
20710;BME280;10516;51.518;9.864;2023-05-23T08:53:35;98756.81;;;15.44;81.66
20710;BME280;10516;51.518;9.864;2023-05-23T08:56:01;98752.50;;;15.48;81.05
20710;BME280;10516;51.518;9.864;2023-05-23T08:58:30;98766.47;;;15.50;81.11
20710;BME280;10516;51.518;9.864;2023-05-23T09:00:56;98757.63;;;15.40;80.81
20710;BME280;10516;51.518;9.864;2023-05-23T09:03:25;98783.34;;;15.56;80.83
20710;BME280;10516;51.518;9.864;2023-05-23T09:05:53;98795.28;;;15.45;81.18
20710;BME280;10516;51.518;9.864;2023-05-23T09:08:21;98784.50;;;15.50;80.56
20710;BME280;10516;51.518;9.864;2023-05-23T09:10:48;98810.88;;;15.43;80.83
20710;BME280;10516;51.518;9.864;2023-05-23T09:13:14;98819.50;;;15.40;80.59
20710;BME280;10516;51.518;9.864;2023-05-23T09:16:03;98807.38;;;14.98;81.62
20710;BME280;10516;51.518;9.864;2023-05-23T09:18:35;98821.06;;;15.51;80.35
20710;BME280;10516;51.518;9.864;2023-05-23T09:21:02;98822.53;;;15.28;80.26
20710;BME280;10516;51.518;9.864;2023-05-23T09:23:35;98819.47;;;15.50;80.43
20710;BME280;10516;51.518;9.864;2023-05-23T09:26:04;98820.81;;;15.81;79.64
20710;BME280;10516;51.518;9.864;2023-05-23T09:28:32;98796.69;;;15.71;78.88
20710;BME280;10516;51.518;9.864;2023-05-23T09:31:02;98813.19;;;15.88;78.82
20710;BME280;10516;51.518;9.864;2023-05-23T09:33:41;98825.06;;;15.87;79.60
20710;BME280;10516;51.518;9.864;2023-05-23T09:36:07;98837.38;;;15.64;79.93
20710;BME280;10516;51.518;9.864;2023-05-23T09:38:39;98820.63;;;15.34;80.61
20710;BME280;10516;51.518;9.864;2023-05-23T09:41:06;98826.94;;;15.58;80.43
20710;BME280;10516;51.518;9.864;2023-05-23T09:43:33;98831.19;;;15.64;80.10
20710;BME280;10516;51.518;9.864;2023-05-23T09:46:10;98825.78;;;15.64;79.51
20710;BME280;10516;51.518;9.864;2023-05-23T09:48:36;98835.19;;;15.66;79.19
20710;BME280;10516;51.518;9.864;2023-05-23T09:51:03;98856.06;;;15.80;79.30
20710;BME280;10516;51.518;9.864;2023-05-23T09:53:29;98867.97;;;15.30;81.07
20710;BME280;10516;51.518;9.864;2023-05-23T09:55:54;98863.38;;;15.35;79.78
20710;BME280;10516;51.518;9.864;2023-05-23T09:58:22;98857.69;;;15.42;79.93
20710;BME280;10516;51.518;9.864;2023-05-23T10:00:49;98857.50;;;15.28;79.24
20710;BME280;10516;51.518;9.864;2023-05-23T10:03:22;98861.78;;;15.29;79.40
20710;BME280;10516;51.518;9.864;2023-05-23T10:05:50;98877.16;;;15.72;78.75
20710;BME280;10516;51.518;9.864;2023-05-23T10:08:24;98884.31;;;15.38;79.17
20710;BME280;10516;51.518;9.864;2023-05-23T10:13:26;98898.59;;;15.34;80.08
20710;BME280;10516;51.518;9.864;2023-05-23T10:16:08;98882.41;;;15.00;79.42
20710;BME280;10516;51.518;9.864;2023-05-23T10:18:42;98889.19;;;14.82;79.74
20710;BME280;10516;51.518;9.864;2023-05-23T10:21:13;98890.09;;;15.17;78.67
20710;BME280;10516;51.518;9.864;2023-05-23T10:23:41;98874.59;;;14.98;79.20
20710;BME280;10516;51.518;9.864;2023-05-23T10:26:08;98885.16;;;14.85;78.45
20710;BME280;10516;51.518;9.864;2023-05-23T10:28:35;98878.81;;;15.20;78.08
20710;BME280;10516;51.518;9.864;2023-05-23T10:31:02;98889.50;;;14.71;79.58
20710;BME280;10516;51.518;9.864;2023-05-23T10:33:32;98885.78;;;14.57;79.67
20710;BME280;10516;51.518;9.864;2023-05-23T10:36:08;98905.28;;;14.87;78.92
20710;BME280;10516;51.518;9.864;2023-05-23T10:44:03;98930.25;;;14.98;78.62
20710;BME280;10516;51.518;9.864;2023-05-23T10:46:56;98931.16;;;14.63;78.92
20710;BME280;10516;51.518;9.864;2023-05-23T10:49:46;98918.00;;;15.31;77.72
20710;BME280;10516;51.518;9.864;2023-05-23T10:52:16;98905.59;;;14.71;78.50
20710;BME280;10516;51.518;9.864;2023-05-23T10:57:09;98936.38;;;15.09;77.59
20710;BME280;10516;51.518;9.864;2023-05-23T10:59:36;98929.59;;;14.47;80.14
20710;BME280;10516;51.518;9.864;2023-05-23T11:02:06;98933.34;;;14.16;80.14
20710;BME280;10516;51.518;9.864;2023-05-23T11:04:35;98942.13;;;14.87;79.92
20710;BME280;10516;51.518;9.864;2023-05-23T11:07:01;98942.66;;;14.89;78.71
20710;BME280;10516;51.518;9.864;2023-05-23T11:09:26;98936.13;;;15.05;78.27
20710;BME280;10516;51.518;9.864;2023-05-23T11:12:06;98939.69;;;14.90;77.14
20710;BME280;10516;51.518;9.864;2023-05-23T11:17:15;98947.81;;;15.39;76.54
20710;BME280;10516;51.518;9.864;2023-05-23T11:20:04;98952.97;;;15.31;76.71
20710;BME280;10516;51.518;9.864;2023-05-23T11:22:31;98940.06;;;15.23;76.58
20710;BME280;10516;51.518;9.864;2023-05-23T11:24:58;98960.06;;;15.07;76.83
20710;BME280;10516;51.518;9.864;2023-05-23T11:27:32;98963.53;;;15.12;77.25
20710;BME280;10516;51.518;9.864;2023-05-23T11:30:09;98956.69;;;15.45;76.40
20710;BME280;10516;51.518;9.864;2023-05-23T11:32:35;98961.56;;;15.28;76.65
20710;BME280;10516;51.518;9.864;2023-05-23T11:35:09;98961.44;;;15.58;76.57
20710;BME280;10516;51.518;9.864;2023-05-23T11:37:38;98954.31;;;15.28;76.35
20710;BME280;10516;51.518;9.864;2023-05-23T11:40:33;98970.97;;;15.35;76.54
20710;BME280;10516;51.518;9.864;2023-05-23T11:43:00;98955.09;;;15.44;76.01
20710;BME280;10516;51.518;9.864;2023-05-23T11:45:29;98967.47;;;15.30;76.32
20710;BME280;10516;51.518;9.864;2023-05-23T11:47:55;98968.47;;;15.54;75.89
20710;BME280;10516;51.518;9.864;2023-05-23T11:50:21;98963.13;;;15.39;76.70
20710;BME280;10516;51.518;9.864;2023-05-23T11:52:47;98974.91;;;15.97;74.84
20710;BME280;10516;51.518;9.864;2023-05-23T11:55:19;98976.78;;;16.01;74.33
20710;BME280;10516;51.518;9.864;2023-05-23T11:57:45;98971.28;;;15.24;75.77
20710;BME280;10516;51.518;9.864;2023-05-23T12:00:11;98961.19;;;15.59;75.45
20710;BME280;10516;51.518;9.864;2023-05-23T12:02:38;98980.97;;;15.79;74.91
20710;BME280;10516;51.518;9.864;2023-05-23T12:07:33;98971.28;;;15.24;75.44
20710;BME280;10516;51.518;9.864;2023-05-23T12:10:01;98987.88;;;15.41;75.08
20710;BME280;10516;51.518;9.864;2023-05-23T12:12:27;98987.06;;;15.45;74.26
20710;BME280;10516;51.518;9.864;2023-05-23T12:14:55;98974.97;;;15.48;75.45
20710;BME280;10516;51.518;9.864;2023-05-23T12:17:20;98986.38;;;15.79;74.54
20710;BME280;10516;51.518;9.864;2023-05-23T12:19:45;98994.84;;;15.57;74.12
20710;BME280;10516;51.518;9.864;2023-05-23T12:22:11;98993.53;;;15.44;75.43
20710;BME280;10516;51.518;9.864;2023-05-23T12:24:44;99005.84;;;15.60;75.11
20710;BME280;10516;51.518;9.864;2023-05-23T12:27:10;99015.69;;;15.11;75.74
20710;BME280;10516;51.518;9.864;2023-05-23T12:29:36;99001.16;;;15.17;75.63
20710;BME280;10516;51.518;9.864;2023-05-23T12:32:05;99015.31;;;15.48;75.30
20710;BME280;10516;51.518;9.864;2023-05-23T12:34:31;99020.72;;;15.33;76.07
20710;BME280;10516;51.518;9.864;2023-05-23T12:36:57;98996.63;;;15.02;75.09
20710;BME280;10516;51.518;9.864;2023-05-23T12:39:24;99008.66;;;15.25;75.84
20710;BME280;10516;51.518;9.864;2023-05-23T12:41:51;99003.94;;;15.66;74.73
20710;BME280;10516;51.518;9.864;2023-05-23T12:44:17;99028.78;;;15.33;74.91
20710;BME280;10516;51.518;9.864;2023-05-23T12:46:42;99027.56;;;14.90;76.61
20710;BME280;10516;51.518;9.864;2023-05-23T12:49:08;99010.66;;;14.74;74.62
20710;BME280;10516;51.518;9.864;2023-05-23T12:51:33;99023.03;;;14.60;76.85
20710;BME280;10516;51.518;9.864;2023-05-23T12:53:59;99014.41;;;14.13;77.72
20710;BME280;10516;51.518;9.864;2023-05-23T12:56:25;99031.34;;;14.64;77.04
20710;BME280;10516;51.518;9.864;2023-05-23T12:58:50;99026.28;;;14.32;77.72
20710;BME280;10516;51.518;9.864;2023-05-23T13:01:18;99011.75;;;14.63;77.11
20710;BME280;10516;51.518;9.864;2023-05-23T13:03:44;99021.16;;;14.71;77.37
20710;BME280;10516;51.518;9.864;2023-05-23T13:06:09;99032.41;;;14.68;77.30
20710;BME280;10516;51.518;9.864;2023-05-23T13:08:35;99037.28;;;14.41;78.57
20710;BME280;10516;51.518;9.864;2023-05-23T13:11:01;99037.78;;;14.27;79.33
20710;BME280;10516;51.518;9.864;2023-05-23T13:13:27;99033.19;;;14.18;78.29
20710;BME280;10516;51.518;9.864;2023-05-23T13:15:52;99039.94;;;14.71;77.69
20710;BME280;10516;51.518;9.864;2023-05-23T13:18:17;99055.56;;;14.59;77.75
20710;BME280;10516;51.518;9.864;2023-05-23T13:20:43;99068.16;;;14.43;78.76